sensor_id;sensor_type;location;lat;lon;timestamp;pressure;altitude;pressure_sealevel;temperature;humidity
30636;BME280;17400;52.392;9.750;2023-01-26T00:01:15;101849.69;;;0.32;100.00
30636;BME280;17400;52.392;9.750;2023-01-26T00:03:43;101844.06;;;0.37;100.00
30636;BME280;17400;52.392;9.750;2023-01-26T00:06:15;101835.31;;;-0.05;100.00
30636;BME280;17400;52.392;9.750;2023-01-26T00:08:44;101840.78;;;-0.21;100.00
30636;BME280;17400;52.392;9.750;2023-01-26T00:11:13;101834.47;;;-0.20;100.00
30636;BME280;17400;52.392;9.750;2023-01-26T00:13:41;101840.66;;;-0.20;100.00
30636;BME280;17400;52.392;9.750;2023-01-26T00:16:12;101840.25;;;-0.13;100.00
30636;BME280;17400;52.392;9.750;2023-01-26T00:18:41;101833.88;;;-0.11;100.00
30636;BME280;17400;52.392;9.750;2023-01-26T00:21:12;101826.09;;;-0.14;100.00
30636;BME280;17400;52.392;9.750;2023-01-26T00:23:41;101819.72;;;-0.11;100.00
30636;BME280;17400;52.392;9.750;2023-01-26T00:26:12;101814.75;;;-0.03;100.00
30636;BME280;17400;52.392;9.750;2023-01-26T00:28:40;101811.03;;;-0.01;100.00
30636;BME280;17400;52.392;9.750;2023-01-26T00:31:12;101811.94;;;-0.14;100.00
30636;BME280;17400;52.392;9.750;2023-01-26T00:33:41;101811.41;;;-0.07;100.00
30636;BME280;17400;52.392;9.750;2023-01-26T00:36:09;101804.97;;;-0.03;100.00
30636;BME280;17400;52.392;9.750;2023-01-26T00:38:37;101809.56;;;0.08;100.00
30636;BME280;17400;52.392;9.750;2023-01-26T00:41:06;101810.41;;;0.09;100.00
30636;BME280;17400;52.392;9.750;2023-01-26T00:43:33;101790.50;;;0.14;100.00
30636;BME280;17400;52.392;9.750;2023-01-26T00:46:01;101785.41;;;0.11;100.00
30636;BME280;17400;52.392;9.750;2023-01-26T00:48:30;101785.50;;;0.10;100.00
30636;BME280;17400;52.392;9.750;2023-01-26T00:50:57;101785.84;;;0.18;100.00
30636;BME280;17400;52.392;9.750;2023-01-26T00:53:25;101787.22;;;0.11;100.00
30636;BME280;17400;52.392;9.750;2023-01-26T00:55:55;101786.56;;;0.07;100.00
30636;BME280;17400;52.392;9.750;2023-01-26T00:58:23;101778.78;;;0.17;100.00
30636;BME280;17400;52.392;9.750;2023-01-26T01:00:52;101777.41;;;0.11;100.00
30636;BME280;17400;52.392;9.750;2023-01-26T01:03:20;101778.06;;;0.15;100.00
30636;BME280;17400;52.392;9.750;2023-01-26T01:05:50;101777.72;;;0.07;100.00
30636;BME280;17400;52.392;9.750;2023-01-26T01:08:18;101782.41;;;0.03;100.00
30636;BME280;17400;52.392;9.750;2023-01-26T01:10:47;101772.59;;;0.04;100.00
30636;BME280;17400;52.392;9.750;2023-01-26T01:13:19;101769.53;;;0.10;100.00
30636;BME280;17400;52.392;9.750;2023-01-26T01:15:46;101765.03;;;0.10;100.00
30636;BME280;17400;52.392;9.750;2023-01-26T01:18:14;101766.63;;;0.00;100.00
30636;BME280;17400;52.392;9.750;2023-01-26T01:20:42;101757.16;;;0.09;100.00
30636;BME280;17400;52.392;9.750;2023-01-26T01:23:13;101765.47;;;0.17;100.00
30636;BME280;17400;52.392;9.750;2023-01-26T01:25:41;101772.63;;;0.16;100.00
30636;BME280;17400;52.392;9.750;2023-01-26T01:28:09;101774.44;;;0.16;100.00
30636;BME280;17400;52.392;9.750;2023-01-26T01:30:36;101768.25;;;0.15;100.00
30636;BME280;17400;52.392;9.750;2023-01-26T01:33:04;101763.47;;;0.21;100.00
30636;BME280;17400;52.392;9.750;2023-01-26T01:35:32;101754.88;;;0.30;100.00
30636;BME280;17400;52.392;9.750;2023-01-26T01:38:01;101760.94;;;0.32;100.00
30636;BME280;17400;52.392;9.750;2023-01-26T01:40:30;101760.19;;;0.30;100.00
30636;BME280;17400;52.392;9.750;2023-01-26T01:42:58;101754.44;;;0.36;100.00
30636;BME280;17400;52.392;9.750;2023-01-26T01:45:39;101755.25;;;0.24;100.00
30636;BME280;17400;52.392;9.750;2023-01-26T01:48:14;101746.31;;;0.25;100.00
30636;BME280;17400;52.392;9.750;2023-01-26T01:50:43;101752.25;;;0.03;100.00
30636;BME280;17400;52.392;9.750;2023-01-26T01:53:13;101752.47;;;-0.01;100.00
30636;BME280;17400;52.392;9.750;2023-01-26T01:55:45;101746.47;;;-0.04;100.00
30636;BME280;17400;52.392;9.750;2023-01-26T01:58:14;101740.41;;;-0.06;100.00
30636;BME280;17400;52.392;9.750;2023-01-26T02:00:41;101726.44;;;-0.10;100.00
30636;BME280;17400;52.392;9.750;2023-01-26T02:03:09;101725.84;;;-0.01;100.00
30636;BME280;17400;52.392;9.750;2023-01-26T02:05:47;101726.09;;;0.09;100.00
30636;BME280;17400;52.392;9.750;2023-01-26T02:08:17;101728.75;;;0.09;100.00
30636;BME280;17400;52.392;9.750;2023-01-26T02:10:48;101729.00;;;-0.08;100.00
30636;BME280;17400;52.392;9.750;2023-01-26T02:13:17;101720.69;;;-0.17;100.00
30636;BME280;17400;52.392;9.750;2023-01-26T02:15:45;101723.69;;;-0.08;100.00
30636;BME280;17400;52.392;9.750;2023-01-26T02:18:13;101716.97;;;-0.14;100.00
30636;BME280;17400;52.392;9.750;2023-01-26T02:20:44;101726.34;;;-0.08;100.00
30636;BME280;17400;52.392;9.750;2023-01-26T02:23:21;101722.44;;;-0.03;100.00
30636;BME280;17400;52.392;9.750;2023-01-26T02:26:02;101715.06;;;0.01;100.00
30636;BME280;17400;52.392;9.750;2023-01-26T02:28:30;101709.03;;;-0.01;100.00
30636;BME280;17400;52.392;9.750;2023-01-26T02:30:58;101705.72;;;-0.05;100.00
30636;BME280;17400;52.392;9.750;2023-01-26T02:33:28;101709.03;;;-0.01;100.00
30636;BME280;17400;52.392;9.750;2023-01-26T02:35:57;101710.06;;;-0.04;100.00
30636;BME280;17400;52.392;9.750;2023-01-26T02:38:30;101707.53;;;-0.05;100.00
30636;BME280;17400;52.392;9.750;2023-01-26T02:41:07;101708.06;;;0.00;100.00
30636;BME280;17400;52.392;9.750;2023-01-26T02:43:36;101713.84;;;0.07;100.00
30636;BME280;17400;52.392;9.750;2023-01-26T02:46:03;101714.44;;;0.10;100.00
30636;BME280;17400;52.392;9.750;2023-01-26T02:48:32;101715.06;;;0.01;100.00
30636;BME280;17400;52.392;9.750;2023-01-26T02:51:17;101710.94;;;0.10;100.00
30636;BME280;17400;52.392;9.750;2023-01-26T02:53:45;101705.72;;;0.21;100.00
30636;BME280;17400;52.392;9.750;2023-01-26T02:56:14;101704.88;;;0.21;100.00
30636;BME280;17400;52.392;9.750;2023-01-26T02:58:40;101701.81;;;0.27;100.00
30636;BME280;17400;52.392;9.750;2023-01-26T03:01:08;101705.09;;;0.30;100.00
30636;BME280;17400;52.392;9.750;2023-01-26T03:03:35;101708.63;;;0.31;100.00
30636;BME280;17400;52.392;9.750;2023-01-26T03:06:11;101703.53;;;0.28;100.00
30636;BME280;17400;52.392;9.750;2023-01-26T03:08:40;101704.91;;;0.33;100.00
30636;BME280;17400;52.392;9.750;2023-01-26T03:11:08;101711.06;;;0.34;100.00
30636;BME280;17400;52.392;9.750;2023-01-26T03:13:37;101702.53;;;0.29;100.00
30636;BME280;17400;52.392;9.750;2023-01-26T03:16:07;101708.41;;;0.34;100.00
30636;BME280;17400;52.392;9.750;2023-01-26T03:18:35;101700.97;;;0.39;100.00
30636;BME280;17400;52.392;9.750;2023-01-26T03:21:35;101708.31;;;0.48;100.00
30636;BME280;17400;52.392;9.750;2023-01-26T03:24:20;101710.97;;;0.61;100.00
30636;BME280;17400;52.392;9.750;2023-01-26T03:27:08;101702.63;;;0.66;100.00
30636;BME280;17400;52.392;9.750;2023-01-26T03:29:56;101707.78;;;0.69;100.00
30636;BME280;17400;52.392;9.750;2023-01-26T03:32:24;101702.63;;;0.66;100.00
30636;BME280;17400;52.392;9.750;2023-01-26T03:34:52;101698.91;;;0.69;100.00
30636;BME280;17400;52.392;9.750;2023-01-26T03:37:19;101701.47;;;0.70;100.00
30636;BME280;17400;52.392;9.750;2023-01-26T03:39:48;101695.06;;;0.73;100.00
30636;BME280;17400;52.392;9.750;2023-01-26T03:42:34;101696.66;;;0.75;100.00
30636;BME280;17400;52.392;9.750;2023-01-26T03:45:21;101693.69;;;0.80;100.00
30636;BME280;17400;52.392;9.750;2023-01-26T03:48:08;101695.28;;;0.82;100.00
30636;BME280;17400;52.392;9.750;2023-01-26T03:50:54;101687.72;;;0.76;100.00
30636;BME280;17400;52.392;9.750;2023-01-26T03:53:40;101681.97;;;0.70;100.00
30636;BME280;17400;52.392;9.750;2023-01-26T03:56:26;101687.06;;;0.73;100.00
30636;BME280;17400;52.392;9.750;2023-01-26T03:59:00;101686.22;;;0.72;100.00
30636;BME280;17400;52.392;9.750;2023-01-26T04:01:37;101692.19;;;0.76;100.00
30636;BME280;17400;52.392;9.750;2023-01-26T04:04:05;101682.38;;;0.76;100.00
30636;BME280;17400;52.392;9.750;2023-01-26T04:06:51;101690.91;;;0.81;100.00
30636;BME280;17400;52.392;9.750;2023-01-26T04:09:37;101686.41;;;0.82;100.00
30636;BME280;17400;52.392;9.750;2023-01-26T04:12:06;101682.59;;;0.86;100.00
30636;BME280;17400;52.392;9.750;2023-01-26T04:14:35;101677.25;;;0.86;100.00
30636;BME280;17400;52.392;9.750;2023-01-26T04:17:22;101684.06;;;0.90;100.00
30636;BME280;17400;52.392;9.750;2023-01-26T04:20:08;101681.41;;;0.90;100.00
30636;BME280;17400;52.392;9.750;2023-01-26T04:22:53;101672.41;;;0.91;100.00
30636;BME280;17400;52.392;9.750;2023-01-26T04:25:21;101668.41;;;0.86;100.00
30636;BME280;17400;52.392;9.750;2023-01-26T04:27:49;101665.97;;;0.82;100.00
30636;BME280;17400;52.392;9.750;2023-01-26T04:30:17;101667.44;;;0.87;100.00
30636;BME280;17400;52.392;9.750;2023-01-26T04:32:46;101660.91;;;0.91;100.00
30636;BME280;17400;52.392;9.750;2023-01-26T04:35:14;101660.19;;;0.89;100.00
30636;BME280;17400;52.392;9.750;2023-01-26T04:37:42;101659.22;;;0.90;100.00
30636;BME280;17400;52.392;9.750;2023-01-26T04:40:13;101651.22;;;0.90;100.00
30636;BME280;17400;52.392;9.750;2023-01-26T04:42:41;101658.25;;;0.91;100.00
30636;BME280;17400;52.392;9.750;2023-01-26T04:45:09;101655.34;;;0.94;100.00
30636;BME280;17400;52.392;9.750;2023-01-26T04:47:37;101655.28;;;0.95;100.00
30636;BME280;17400;52.392;9.750;2023-01-26T04:50:07;101646.63;;;0.92;100.00
30636;BME280;17400;52.392;9.750;2023-01-26T04:52:36;101648.13;;;0.96;100.00
30636;BME280;17400;52.392;9.750;2023-01-26T04:55:04;101659.53;;;0.98;100.00
30636;BME280;17400;52.392;9.750;2023-01-26T04:57:32;101657.81;;;0.97;100.00
30636;BME280;17400;52.392;9.750;2023-01-26T04:59:59;101663.34;;;0.94;100.00
30636;BME280;17400;52.392;9.750;2023-01-26T05:02:27;101653.81;;;0.78;100.00
30636;BME280;17400;52.392;9.750;2023-01-26T05:04:55;101656.09;;;0.59;100.00
30636;BME280;17400;52.392;9.750;2023-01-26T05:07:24;101646.69;;;0.66;100.00
30636;BME280;17400;52.392;9.750;2023-01-26T05:09:51;101647.44;;;0.68;100.00
30636;BME280;17400;52.392;9.750;2023-01-26T05:12:21;101635.06;;;0.67;100.00
30636;BME280;17400;52.392;9.750;2023-01-26T05:15:01;101642.41;;;0.63;100.00
30636;BME280;17400;52.392;9.750;2023-01-26T05:17:28;101642.34;;;0.65;100.00
30636;BME280;17400;52.392;9.750;2023-01-26T05:19:56;101647.72;;;0.76;100.00
30636;BME280;17400;52.392;9.750;2023-01-26T05:22:25;101645.94;;;0.77;100.00
30636;BME280;17400;52.392;9.750;2023-01-26T05:24:54;101645.06;;;0.76;100.00
30636;BME280;17400;52.392;9.750;2023-01-26T05:27:22;101642.22;;;0.66;100.00
30636;BME280;17400;52.392;9.750;2023-01-26T05:29:50;101651.88;;;0.80;100.00
30636;BME280;17400;52.392;9.750;2023-01-26T05:32:18;101643.69;;;0.83;100.00
30636;BME280;17400;52.392;9.750;2023-01-26T05:34:47;101649.31;;;0.92;100.00
30636;BME280;17400;52.392;9.750;2023-01-26T05:37:15;101652.91;;;0.91;100.00
30636;BME280;17400;52.392;9.750;2023-01-26T05:39:44;101649.47;;;1.02;100.00
30636;BME280;17400;52.392;9.750;2023-01-26T05:42:12;101640.34;;;0.93;100.00
30636;BME280;17400;52.392;9.750;2023-01-26T05:44:40;101648.16;;;0.70;100.00
30636;BME280;17400;52.392;9.750;2023-01-26T05:47:10;101665.13;;;0.69;100.00
30636;BME280;17400;52.392;9.750;2023-01-26T05:49:38;101664.63;;;0.51;100.00
30636;BME280;17400;52.392;9.750;2023-01-26T05:52:09;101659.16;;;0.53;100.00
30636;BME280;17400;52.392;9.750;2023-01-26T05:54:37;101663.88;;;0.49;100.00
30636;BME280;17400;52.392;9.750;2023-01-26T05:57:07;101667.50;;;0.35;100.00
30636;BME280;17400;52.392;9.750;2023-01-26T05:59:35;101663.34;;;0.44;100.00
30636;BME280;17400;52.392;9.750;2023-01-26T06:02:03;101660.88;;;0.54;100.00
30636;BME280;17400;52.392;9.750;2023-01-26T06:04:31;101665.16;;;0.56;100.00
30636;BME280;17400;52.392;9.750;2023-01-26T06:06:59;101658.97;;;0.56;100.00
30636;BME280;17400;52.392;9.750;2023-01-26T06:09:26;101654.66;;;0.66;100.00
30636;BME280;17400;52.392;9.750;2023-01-26T06:11:55;101654.25;;;0.72;100.00
30636;BME280;17400;52.392;9.750;2023-01-26T06:14:24;101662.59;;;0.68;100.00
30636;BME280;17400;52.392;9.750;2023-01-26T06:16:51;101653.53;;;0.57;100.00
30636;BME280;17400;52.392;9.750;2023-01-26T06:19:20;101655.97;;;0.60;100.00
30636;BME280;17400;52.392;9.750;2023-01-26T06:21:47;101658.34;;;0.39;100.00
30636;BME280;17400;52.392;9.750;2023-01-26T06:24:15;101659.72;;;0.45;100.00
30636;BME280;17400;52.392;9.750;2023-01-26T06:26:43;101659.47;;;0.61;100.00
30636;BME280;17400;52.392;9.750;2023-01-26T06:29:11;101666.31;;;0.65;100.00
30636;BME280;17400;52.392;9.750;2023-01-26T06:31:40;101664.72;;;0.49;100.00
30636;BME280;17400;52.392;9.750;2023-01-26T06:34:08;101663.44;;;0.55;100.00
30636;BME280;17400;52.392;9.750;2023-01-26T06:36:36;101665.44;;;0.64;100.00
30636;BME280;17400;52.392;9.750;2023-01-26T06:39:05;101663.84;;;0.75;100.00
30636;BME280;17400;52.392;9.750;2023-01-26T06:41:33;101668.97;;;0.65;100.00
30636;BME280;17400;52.392;9.750;2023-01-26T06:44:01;101672.38;;;0.54;100.00
30636;BME280;17400;52.392;9.750;2023-01-26T06:46:29;101667.47;;;0.61;100.00
30636;BME280;17400;52.392;9.750;2023-01-26T06:49:00;101662.25;;;0.72;100.00
30636;BME280;17400;52.392;9.750;2023-01-26T06:51:43;101663.41;;;0.81;100.00
30636;BME280;17400;52.392;9.750;2023-01-26T06:54:13;101660.75;;;0.81;100.00
30636;BME280;17400;52.392;9.750;2023-01-26T06:56:41;101658.38;;;0.76;100.00
30636;BME280;17400;52.392;9.750;2023-01-26T06:59:10;101654.22;;;0.85;100.00
30636;BME280;17400;52.392;9.750;2023-01-26T07:01:40;101659.97;;;0.92;100.00
30636;BME280;17400;52.392;9.750;2023-01-26T07:04:11;101655.47;;;0.92;100.00
30636;BME280;17400;52.392;9.750;2023-01-26T07:06:40;101667.56;;;0.85;100.00
30636;BME280;17400;52.392;9.750;2023-01-26T07:09:08;101675.34;;;0.75;100.00
30636;BME280;17400;52.392;9.750;2023-01-26T07:11:37;101675.91;;;0.68;100.00
30636;BME280;17400;52.392;9.750;2023-01-26T07:14:05;101680.25;;;0.69;100.00
30636;BME280;17400;52.392;9.750;2023-01-26T07:16:33;101685.16;;;0.75;100.00
30636;BME280;17400;52.392;9.750;2023-01-26T07:19:00;101682.06;;;0.81;100.00
30636;BME280;17400;52.392;9.750;2023-01-26T07:21:29;101674.50;;;0.75;100.00
30636;BME280;17400;52.392;9.750;2023-01-26T07:23:57;101683.91;;;0.68;100.00
30636;BME280;17400;52.392;9.750;2023-01-26T07:26:25;101679.94;;;0.73;100.00
30636;BME280;17400;52.392;9.750;2023-01-26T07:28:52;101676.09;;;0.77;100.00
30636;BME280;17400;52.392;9.750;2023-01-26T07:31:21;101674.78;;;0.83;100.00
30636;BME280;17400;52.392;9.750;2023-01-26T07:33:48;101671.19;;;0.84;100.00
30636;BME280;17400;52.392;9.750;2023-01-26T07:36:17;101669.03;;;0.89;100.00
30636;BME280;17400;52.392;9.750;2023-01-26T07:38:46;101667.44;;;0.87;100.00
30636;BME280;17400;52.392;9.750;2023-01-26T07:41:14;101668.91;;;0.91;100.00
30636;BME280;17400;52.392;9.750;2023-01-26T07:43:41;101666.13;;;0.92;100.00
30636;BME280;17400;52.392;9.750;2023-01-26T07:46:09;101674.78;;;0.96;100.00
30636;BME280;17400;52.392;9.750;2023-01-26T07:48:37;101677.97;;;1.01;100.00
30636;BME280;17400;52.392;9.750;2023-01-26T07:51:07;101675.03;;;0.80;100.00
30636;BME280;17400;52.392;9.750;2023-01-26T07:53:36;101673.19;;;0.80;100.00
30636;BME280;17400;52.392;9.750;2023-01-26T07:56:08;101674.38;;;0.76;100.00
30636;BME280;17400;52.392;9.750;2023-01-26T07:58:36;101667.97;;;0.79;100.00
30636;BME280;17400;52.392;9.750;2023-01-26T08:01:08;101676.06;;;0.90;100.00
30636;BME280;17400;52.392;9.750;2023-01-26T08:03:37;101674.25;;;0.91;100.00
30636;BME280;17400;52.392;9.750;2023-01-26T08:06:06;101671.03;;;0.98;100.00
30636;BME280;17400;52.392;9.750;2023-01-26T08:08:38;101674.44;;;1.00;100.00
30636;BME280;17400;52.392;9.750;2023-01-26T08:11:09;101673.06;;;0.95;100.00
30636;BME280;17400;52.392;9.750;2023-01-26T08:13:37;101673.00;;;0.83;100.00
30636;BME280;17400;52.392;9.750;2023-01-26T08:16:06;101672.13;;;0.83;100.00
30636;BME280;17400;52.392;9.750;2023-01-26T08:18:38;101684.91;;;0.91;100.00
30636;BME280;17400;52.392;9.750;2023-01-26T08:21:06;101691.84;;;0.93;100.00
30636;BME280;17400;52.392;9.750;2023-01-26T08:23:34;101690.66;;;0.97;100.00
30636;BME280;17400;52.392;9.750;2023-01-26T08:26:02;101690.41;;;1.00;100.00
30636;BME280;17400;52.392;9.750;2023-01-26T08:28:31;101689.16;;;1.06;100.00
30636;BME280;17400;52.392;9.750;2023-01-26T08:31:02;101695.31;;;1.07;100.00
30636;BME280;17400;52.392;9.750;2023-01-26T08:33:32;101697.03;;;1.08;100.00
30636;BME280;17400;52.392;9.750;2023-01-26T08:36:00;101706.50;;;1.12;100.00
30636;BME280;17400;52.392;9.750;2023-01-26T08:38:29;101698.19;;;1.16;100.00
30636;BME280;17400;52.392;9.750;2023-01-26T08:40:57;101696.78;;;1.24;100.00
30636;BME280;17400;52.392;9.750;2023-01-26T08:43:25;101697.75;;;1.10;100.00
30636;BME280;17400;52.392;9.750;2023-01-26T08:45:54;101685.53;;;1.07;100.00
30636;BME280;17400;52.392;9.750;2023-01-26T08:48:22;101691.06;;;1.04;100.00
30636;BME280;17400;52.392;9.750;2023-01-26T08:50:52;101688.91;;;1.09;100.00
30636;BME280;17400;52.392;9.750;2023-01-26T08:53:21;101686.88;;;1.13;100.00
30636;BME280;17400;52.392;9.750;2023-01-26T08:55:49;101693.81;;;1.15;100.00
30636;BME280;17400;52.392;9.750;2023-01-26T08:58:17;101694.03;;;1.12;100.00
30636;BME280;17400;52.392;9.750;2023-01-26T09:00:45;101702.13;;;1.11;100.00
30636;BME280;17400;52.392;9.750;2023-01-26T09:03:15;101706.09;;;1.05;100.00
30636;BME280;17400;52.392;9.750;2023-01-26T09:05:43;101700.34;;;1.11;100.00
30636;BME280;17400;52.392;9.750;2023-01-26T09:08:11;101695.72;;;1.13;100.00
30636;BME280;17400;52.392;9.750;2023-01-26T09:10:39;101696.59;;;1.14;100.00
30636;BME280;17400;52.392;9.750;2023-01-26T09:13:06;101692.09;;;1.14;100.00
30636;BME280;17400;52.392;9.750;2023-01-26T09:15:36;101686.78;;;1.14;100.00
30636;BME280;17400;52.392;9.750;2023-01-26T09:18:04;101693.59;;;1.19;100.00
30636;BME280;17400;52.392;9.750;2023-01-26T09:20:33;101700.69;;;1.31;100.00
30636;BME280;17400;52.392;9.750;2023-01-26T09:23:01;101697.72;;;1.23;100.00
30636;BME280;17400;52.392;9.750;2023-01-26T09:25:29;101695.72;;;1.13;100.00
30636;BME280;17400;52.392;9.750;2023-01-26T09:27:57;101693.19;;;1.12;100.00
30636;BME280;17400;52.392;9.750;2023-01-26T09:30:24;101699.59;;;1.09;100.00
30636;BME280;17400;52.392;9.750;2023-01-26T09:32:56;101701.41;;;1.09;100.00
30636;BME280;17400;52.392;9.750;2023-01-26T09:35:25;101707.78;;;1.19;100.00
30636;BME280;17400;52.392;9.750;2023-01-26T09:37:54;101699.16;;;1.15;100.00
30636;BME280;17400;52.392;9.750;2023-01-26T09:40:25;101691.19;;;1.27;100.00
30636;BME280;17400;52.392;9.750;2023-01-26T09:43:03;101686.66;;;1.40;100.00
30636;BME280;17400;52.392;9.750;2023-01-26T09:45:45;101696.44;;;1.53;100.00
30636;BME280;17400;52.392;9.750;2023-01-26T09:48:21;101688.00;;;1.59;100.00
30636;BME280;17400;52.392;9.750;2023-01-26T09:51:00;101687.75;;;1.62;100.00
30636;BME280;17400;52.392;9.750;2023-01-26T09:53:40;101685.19;;;1.36;100.00
30636;BME280;17400;52.392;9.750;2023-01-26T09:56:17;101681.31;;;1.40;100.00
30636;BME280;17400;52.392;9.750;2023-01-26T09:58:49;101679.19;;;1.45;100.00
30636;BME280;17400;52.392;9.750;2023-01-26T10:01:25;101683.56;;;1.46;100.00
30636;BME280;17400;52.392;9.750;2023-01-26T10:04:00;101691.78;;;1.43;100.00
30636;BME280;17400;52.392;9.750;2023-01-26T10:06:30;101689.41;;;1.52;100.00
30636;BME280;17400;52.392;9.750;2023-01-26T10:09:12;101680.25;;;1.43;100.00
30636;BME280;17400;52.392;9.750;2023-01-26T10:11:43;101683.28;;;1.38;100.00
30636;BME280;17400;52.392;9.750;2023-01-26T10:14:14;101679.66;;;1.39;100.00
30636;BME280;17400;52.392;9.750;2023-01-26T10:16:48;101682.31;;;1.39;100.00
30636;BME280;17400;52.392;9.750;2023-01-26T10:19:24;101680.59;;;1.38;100.00
30636;BME280;17400;52.392;9.750;2023-01-26T10:21:59;101682.00;;;1.31;100.00
30636;BME280;17400;52.392;9.750;2023-01-26T10:24:32;101676.63;;;1.20;100.00
30636;BME280;17400;52.392;9.750;2023-01-26T10:27:00;101676.06;;;1.27;100.00
30636;BME280;17400;52.392;9.750;2023-01-26T10:29:28;101664.47;;;1.40;100.00
30636;BME280;17400;52.392;9.750;2023-01-26T10:31:56;101659.53;;;1.46;100.00
30636;BME280;17400;52.392;9.750;2023-01-26T10:34:25;101666.31;;;1.39;100.00
30636;BME280;17400;52.392;9.750;2023-01-26T10:36:59;101661.69;;;1.41;100.00
30636;BME280;17400;52.392;9.750;2023-01-26T10:39:29;101661.53;;;1.31;100.00
30636;BME280;17400;52.392;9.750;2023-01-26T10:42:00;101644.84;;;1.41;100.00
30636;BME280;17400;52.392;9.750;2023-01-26T10:44:33;101645.25;;;1.47;100.00
30636;BME280;17400;52.392;9.750;2023-01-26T10:47:04;101638.13;;;1.59;100.00
30636;BME280;17400;52.392;9.750;2023-01-26T10:49:33;101646.06;;;1.72;100.00
30636;BME280;17400;52.392;9.750;2023-01-26T10:52:06;101643.03;;;1.77;100.00
30636;BME280;17400;52.392;9.750;2023-01-26T10:54:34;101646.84;;;1.86;100.00
30636;BME280;17400;52.392;9.750;2023-01-26T10:57:10;101638.44;;;1.79;100.00
30636;BME280;17400;52.392;9.750;2023-01-26T10:59:42;101633.81;;;1.70;100.00
30636;BME280;17400;52.392;9.750;2023-01-26T11:02:22;101627.72;;;1.67;100.00
30636;BME280;17400;52.392;9.750;2023-01-26T11:07:47;101626.88;;;1.67;100.00
30636;BME280;17400;52.392;9.750;2023-01-26T11:10:21;101625.75;;;1.58;100.00
30636;BME280;17400;52.392;9.750;2023-01-26T11:13:05;101630.69;;;1.52;100.00
30636;BME280;17400;52.392;9.750;2023-01-26T11:15:36;101619.88;;;1.42;100.00
30636;BME280;17400;52.392;9.750;2023-01-26T11:18:14;101632.47;;;1.40;100.00
30636;BME280;17400;52.392;9.750;2023-01-26T11:20:47;101625.47;;;1.50;100.00
30636;BME280;17400;52.392;9.750;2023-01-26T11:23:26;101614.63;;;1.64;100.00
30636;BME280;17400;52.392;9.750;2023-01-26T11:26:11;101621.66;;;1.65;100.00
30636;BME280;17400;52.392;9.750;2023-01-26T11:28:53;101612.19;;;1.73;100.00
30636;BME280;17400;52.392;9.750;2023-01-26T11:31:31;101618.16;;;1.76;100.00
30636;BME280;17400;52.392;9.750;2023-01-26T11:34:12;101615.72;;;1.73;100.00
30636;BME280;17400;52.392;9.750;2023-01-26T11:36:47;101615.56;;;1.63;100.00
30636;BME280;17400;52.392;9.750;2023-01-26T11:39:24;101616.91;;;1.69;100.00
30636;BME280;17400;52.392;9.750;2023-01-26T11:42:05;101606.94;;;1.60;100.00
30636;BME280;17400;52.392;9.750;2023-01-26T11:44:52;101604.38;;;1.58;100.00
30636;BME280;17400;52.392;9.750;2023-01-26T11:47:34;101604.06;;;1.74;100.00
30636;BME280;17400;52.392;9.750;2023-01-26T11:50:19;101598.34;;;1.67;100.00
30636;BME280;17400;52.392;9.750;2023-01-26T11:52:58;101592.56;;;1.74;100.00
30636;BME280;17400;52.392;9.750;2023-01-26T11:55:48;101583.22;;;1.79;100.00
30636;BME280;17400;52.392;9.750;2023-01-26T11:58:28;101592.69;;;1.83;100.00
30636;BME280;17400;52.392;9.750;2023-01-26T12:01:00;101588.44;;;1.81;100.00
30636;BME280;17400;52.392;9.750;2023-01-26T12:03:33;101586.84;;;1.78;100.00
30636;BME280;17400;52.392;9.750;2023-01-26T12:06:05;101591.97;;;1.81;100.00
30636;BME280;17400;52.392;9.750;2023-01-26T12:08:38;101589.81;;;1.87;100.00
30636;BME280;17400;52.392;9.750;2023-01-26T12:11:09;101585.28;;;1.87;100.00
30636;BME280;17400;52.392;9.750;2023-01-26T12:14:11;101582.75;;;1.86;100.00
30636;BME280;17400;52.392;9.750;2023-01-26T12:16:52;101582.75;;;1.86;100.00
30636;BME280;17400;52.392;9.750;2023-01-26T12:19:48;101580.56;;;1.91;100.00
30636;BME280;17400;52.392;9.750;2023-01-26T12:22:22;101579.59;;;1.92;100.00
30636;BME280;17400;52.392;9.750;2023-01-26T12:24:56;101578.31;;;1.62;100.00
30636;BME280;17400;52.392;9.750;2023-01-26T12:27:50;101581.34;;;1.57;100.00
30636;BME280;17400;52.392;9.750;2023-01-26T12:30:32;101574.44;;;1.66;100.00
30636;BME280;17400;52.392;9.750;2023-01-26T12:33:02;101576.38;;;1.64;100.00
30636;BME280;17400;52.392;9.750;2023-01-26T12:35:40;101573.81;;;1.62;100.00
30636;BME280;17400;52.392;9.750;2023-01-26T12:38:17;101572.16;;;1.73;100.00
30636;BME280;17400;52.392;9.750;2023-01-26T12:41:02;101563.72;;;1.55;100.00
30636;BME280;17400;52.392;9.750;2023-01-26T12:43:43;101551.63;;;1.62;100.00
30636;BME280;17400;52.392;9.750;2023-01-26T12:46:16;101553.59;;;1.71;100.00
30636;BME280;17400;52.392;9.750;2023-01-26T12:48:47;101544.75;;;1.82;100.00
30636;BME280;17400;52.392;9.750;2023-01-26T12:51:19;101545.13;;;1.89;100.00
30636;BME280;17400;52.392;9.750;2023-01-26T12:53:56;101545.00;;;1.79;100.00
30636;BME280;17400;52.392;9.750;2023-01-26T12:56:27;101546.59;;;1.81;100.00
30636;BME280;17400;52.392;9.750;2023-01-26T12:58:57;101550.06;;;1.71;100.00
30636;BME280;17400;52.392;9.750;2023-01-26T13:01:37;101543.41;;;1.76;100.00
30636;BME280;17400;52.392;9.750;2023-01-26T13:04:08;101537.34;;;1.74;100.00
30636;BME280;17400;52.392;9.750;2023-01-26T13:06:37;101540.88;;;1.86;100.00
30636;BME280;17400;52.392;9.750;2023-01-26T13:09:19;101540.66;;;1.89;100.00
30636;BME280;17400;52.392;9.750;2023-01-26T13:11:51;101533.22;;;1.81;100.00
30636;BME280;17400;52.392;9.750;2023-01-26T13:14:36;101539.28;;;1.83;100.00
30636;BME280;17400;52.392;9.750;2023-01-26T13:20:46;101529.94;;;1.78;100.00